Old Fields, West Virginia
Current Conditions -  °F | °C
As of 7:35 PM on Monday 22 Dec 2014 (Local Time) from KW99 Reporting Station
Haze Haze  
Wind Chill:   Ceiling: 1700
Heat Index:   Visibility: 3mi
Dew Point:   Wind: 0mph
Humidity: 100%   Direction: NA
Pressure: 30.14"   Gusts: NA
Location:  39.14°N, 78.95°W
Report Text: KW99 230035Z AUTO 00000KT 3SM BR SCT007 OVC017 00/00 A3014 RMK AO2 T10011001
Loading
Personal Weather Stations






























Interactive Weather Map New forecast layout! Learn more

10-Day Weather Forecast

Advertisements
Track Severe Weather on mobile